Weather History for KRNH - September, 2013

Change the Weather History Date:

Wednesday, September 25, 2013

  Actual Average (KMSP) Record (KMSP)
Temperature  
Mean Temperature 59 °F 58 °F  
Max Temperature 72 °F 68 °F 91 °F (1920)
Min Temperature 46 °F 48 °F 31 °F (1926)
Degree Days  
Heating Degree Days 6 8  
Month to date heating degree days 109  
Since 1 July heating degree days 128  
Cooling Degree Days 0 1  
Month to date cooling degree days 62  
Year to date cooling degree days 743  
Growing Degree Days 9 (Base 50)    
Moisture  
Dew Point 48 °F    
Average Humidity 73    
Maximum Humidity 99    
Minimum Humidity 41    
Precipitation  
Precipitation 0.00 in 0.11 in 1.34 in (1934)
Month to date precipitation 2.60  
Year to date precipitation 24.77  
Snow  
Snow 0.00 in 0.00 in 0.00 in ()
Month to date snowfall 0.0  
Since 1 July snowfall 0.0  
Since 1 September snowfall 0.0  
Snow Depth -    
Sea Level Pressure  
Sea Level Pressure 29.96 in    
Wind  
Wind Speed 3 mph (SE)    
Max Wind Speed 10 mph    
Max Gust Speed 16 mph    
Visibility 10 miles    
Events      
T = Trace of Precipitation, MM = Missing Value Source: NWS Daily Summary

Daily Weather History Graph

Daily Weather History Graph

Search for Another Location

Airport or City:

Trip Planner

Search our weather history database for the weather conditions in past years. The results will help you decide how hot, cold, wet, or windy it might be!

Date:

Astronomy

Sep. 25, 2013 Rise Set
Actual Time 7:01 AM CDT 7:01 PM CDT
Civil Twilight 6:31 AM CDT 7:30 PM CDT
Nautical Twilight 5:57 AM CDT 8:04 PM CDT
Astronomical Twilight 5:22 AM CDT 8:39 PM CDT
Moon 10:54 PM CDT (9/25) 1:21 PM CDT (9/25)
Length of Visible Light 12h 58m
Length of Day
12h 00m
Waning Gibbous, 64% of the Moon is Illuminated
Sep 25
Waning Gibbous
Sep 26
Last Quarter
Oct 4
New
Oct 11
First Quarter
Oct 18
Full

Hourly Weather History & Observations

Time (CDT) Temp. Dew Point Humidity Pressure Visibility Wind Dir Wind Speed Gust Speed Precip Events Conditions
12:15 AM 50.9 °F 48.2 °F 90% 29.96 in 10.0 mi Calm Calm - N/A   Clear
12:35 AM 50.0 °F 48.4 °F 94% 29.97 in 10.0 mi Calm Calm - N/A   Clear
12:55 AM 50.4 °F 48.2 °F 92% 29.97 in 10.0 mi Calm Calm - N/A   Clear
1:15 AM 49.8 °F 48.2 °F 94% 29.97 in 10.0 mi Calm Calm - N/A   Clear
1:35 AM 50.4 °F 48.6 °F 94% 29.97 in 10.0 mi Calm Calm - N/A   Clear
1:55 AM 48.4 °F 47.3 °F 96% 29.97 in 10.0 mi Calm Calm - N/A   Clear
2:15 AM 48.7 °F 47.3 °F 95% 29.97 in 10.0 mi Calm Calm - N/A   Clear
2:35 AM 47.3 °F 46.4 °F 97% 29.98 in 10.0 mi East 3.5 mph - N/A   Clear
2:55 AM 48.6 °F 47.7 °F 97% 29.98 in 10.0 mi Calm Calm - N/A   Clear
3:15 AM 48.4 °F 47.5 °F 97% 29.98 in 10.0 mi Calm Calm - N/A   Clear
3:35 AM 46.8 °F 45.7 °F 96% 29.98 in 10.0 mi Calm Calm - N/A   Clear
3:55 AM 47.3 °F 46.9 °F 99% 29.99 in 10.0 mi Calm Calm - N/A   Clear
4:15 AM 46.8 °F 46.4 °F 99% 29.99 in 10.0 mi Calm Calm - N/A   Clear
4:35 AM 47.3 °F 47.1 °F 99% 29.99 in 10.0 mi Calm Calm - N/A   Clear
4:55 AM 47.7 °F 47.5 °F 99% 29.99 in 10.0 mi ESE 3.5 mph - N/A   Clear
5:15 AM 47.5 °F 47.1 °F 99% 29.99 in 10.0 mi ESE 3.5 mph - N/A   Clear
5:35 AM 48.7 °F 48.2 °F 98% 29.99 in 10.0 mi ESE 3.5 mph - N/A   Clear
5:55 AM 47.3 °F 46.6 °F 97% 29.99 in 10.0 mi Calm Calm - N/A   Clear
6:15 AM 46.8 °F 46.6 °F 99% 29.99 in 7.0 mi East 3.5 mph - N/A   Clear
6:35 AM 47.7 °F 47.1 °F 98% 29.99 in 7.0 mi East 3.5 mph - N/A   Clear
6:55 AM 47.1 °F 46.8 °F 99% 29.99 in 7.0 mi Calm Calm - N/A   Clear
7:15 AM 47.8 °F 47.7 °F 99% 29.99 in 5.0 mi ESE 5.8 mph - N/A   Clear
7:35 AM 47.8 °F 47.5 °F 99% 29.99 in 4.0 mi East 3.5 mph - N/A   Clear
7:55 AM 49.3 °F 49.1 °F 99% 30.00 in 5.0 mi East 5.8 mph - N/A   Clear
8:15 AM 50.7 °F 49.6 °F 96% 29.99 in 7.0 mi ESE 4.6 mph - N/A   Clear
8:35 AM 52.7 °F 50.9 °F 94% 30.00 in 10.0 mi ESE 3.5 mph - N/A   Clear
8:55 AM 54.1 °F 51.3 °F 90% 30.00 in 10.0 mi ESE 3.5 mph - N/A   Clear
9:15 AM 56.3 °F 52.0 °F 85% 30.00 in 10.0 mi SE 3.5 mph - N/A   Clear
9:35 AM 58.1 °F 52.7 °F 82% 30.00 in 10.0 mi SSE 3.5 mph - N/A   Clear
9:55 AM 60.4 °F 51.8 °F 73% 30.00 in 10.0 mi SSE 3.5 mph - N/A   Clear
10:15 AM 61.9 °F 51.8 °F 69% 30.00 in 10.0 mi SSE 4.6 mph - N/A   Clear
10:35 AM 64.4 °F 51.6 °F 63% 30.00 in 10.0 mi South 6.9 mph - N/A   Clear
10:55 AM 65.5 °F 51.4 °F 60% 30.00 in 10.0 mi SSE 8.1 mph - N/A   Clear
11:15 AM 67.1 °F 51.3 °F 57% 29.99 in 10.0 mi SE 6.9 mph - N/A   Clear
11:35 AM 68.2 °F 50.7 °F 54% 29.99 in 10.0 mi SE 6.9 mph - N/A   Clear
11:55 AM 68.5 °F 50.5 °F 53% 29.99 in 10.0 mi SSE 8.1 mph - N/A   Clear
12:15 PM 68.4 °F 50.5 °F 53% 29.99 in 10.0 mi SSE 9.2 mph - N/A   Clear
12:35 PM 69.1 °F 50.4 °F 51% 29.99 in 10.0 mi South 9.2 mph - N/A   Clear
1:15 PM 69.6 °F 49.6 °F 49% 29.97 in 10.0 mi SE 6.9 mph 16.1 mph N/A   Clear
1:55 PM 70.0 °F 49.3 °F 48% 29.95 in 10.0 mi East 10.4 mph - N/A   Clear
2:15 PM 71.2 °F 49.3 °F 46% 29.94 in 10.0 mi SE 6.9 mph - N/A   Clear
2:35 PM 71.1 °F 48.7 °F 45% 29.94 in 10.0 mi SE 9.2 mph - N/A   Clear
2:55 PM 72.1 °F 49.6 °F 45% 29.94 in 10.0 mi SSE 8.1 mph - N/A   Clear
3:15 PM 72.5 °F 49.5 °F 44% 29.93 in 10.0 mi SSE 5.8 mph - N/A   Clear
3:35 PM 72.7 °F 49.1 °F 43% 29.93 in 10.0 mi SE 6.9 mph - N/A   Clear
3:55 PM 72.5 °F 47.5 °F 41% 29.93 in 10.0 mi SE 6.9 mph - N/A   Clear
4:15 PM 72.1 °F 48.0 °F 42% 29.92 in 10.0 mi South 6.9 mph - N/A   Clear
4:35 PM 72.0 °F 48.9 °F 44% 29.92 in 10.0 mi SE 5.8 mph - N/A   Clear
4:55 PM 71.8 °F 48.9 °F 44% 29.92 in 10.0 mi SSE 8.1 mph - N/A   Clear
5:15 PM 71.1 °F 48.2 °F 44% 29.92 in 10.0 mi ESE 8.1 mph - N/A   Clear
5:35 PM 70.5 °F 47.8 °F 44% 29.92 in 10.0 mi ESE 8.1 mph - N/A   Clear
5:55 PM 69.8 °F 48.0 °F 46% 29.92 in 10.0 mi ESE 4.6 mph - N/A   Clear
6:15 PM 67.6 °F 47.3 °F 48% 29.92 in 10.0 mi SE 6.9 mph - N/A   Clear
6:35 PM 66.2 °F 48.2 °F 52% 29.92 in 10.0 mi SE 5.8 mph - N/A   Clear
6:55 PM 64.4 °F 46.8 °F 53% 29.92 in 10.0 mi SE 5.8 mph - N/A   Clear
7:15 PM 62.2 °F 46.4 °F 56% 29.92 in 10.0 mi SE 4.6 mph - N/A   Clear
7:35 PM 61.0 °F 45.7 °F 57% 29.92 in 10.0 mi SE 3.5 mph - N/A   Clear
7:55 PM 59.9 °F 45.7 °F 59% 29.93 in 10.0 mi SE 3.5 mph - N/A   Clear
8:15 PM 59.2 °F 46.0 °F 62% 29.93 in 10.0 mi ESE 3.5 mph - N/A   Clear
8:35 PM 58.8 °F 46.4 °F 63% 29.93 in 10.0 mi ESE 4.6 mph - N/A   Clear
8:55 PM 58.1 °F 46.6 °F 65% 29.93 in 10.0 mi ESE 4.6 mph - N/A   Clear
9:15 PM 57.7 °F 46.9 °F 67% 29.93 in 10.0 mi ESE 4.6 mph - N/A   Clear
9:35 PM 57.0 °F 47.1 °F 69% 29.93 in 10.0 mi ESE 3.5 mph - N/A   Clear
9:55 PM 56.3 °F 47.3 °F 72% 29.94 in 10.0 mi ESE 4.6 mph - N/A   Clear
10:15 PM 56.3 °F 47.3 °F 72% 29.94 in 10.0 mi ESE 4.6 mph - N/A   Clear
10:35 PM 55.8 °F 47.7 °F 74% 29.94 in 10.0 mi ESE 3.5 mph - N/A   Clear
10:55 PM 54.9 °F 47.5 °F 76% 29.94 in 10.0 mi ESE 3.5 mph - N/A   Clear
11:15 PM 54.0 °F 47.5 °F 79% 29.95 in 10.0 mi ESE 3.5 mph - N/A   Clear
11:35 PM 52.9 °F 47.3 °F 81% 29.95 in 10.0 mi East 4.6 mph - N/A   Clear
11:55 PM 52.7 °F 47.5 °F 82% 29.96 in 10.0 mi ESE 5.8 mph - N/A   Clear